createdAt,value
2024-05-09T00:01:27.816Z,10.11
2024-05-09T00:04:32.261Z,10.11
2024-05-09T00:07:36.719Z,10.15
2024-05-09T00:10:43.955Z,10.05
2024-05-09T00:13:48.496Z,9.98
2024-05-09T00:16:52.932Z,9.94
2024-05-09T00:19:57.355Z,9.81
2024-05-09T00:23:01.929Z,9.85
2024-05-09T00:26:09.059Z,9.78
2024-05-09T00:29:13.541Z,9.78
2024-05-09T00:32:18.335Z,9.76
2024-05-09T00:35:23.099Z,9.74
2024-05-09T00:38:27.706Z,9.70
2024-05-09T00:41:34.835Z,9.67
2024-05-09T00:44:39.328Z,9.69
2024-05-09T00:47:45.567Z,9.60
2024-05-09T00:50:50.577Z,9.50
2024-05-09T00:53:55.669Z,9.48
2024-05-09T00:57:05.090Z,9.50
2024-05-09T01:00:22.404Z,9.50
2024-05-09T01:03:35.111Z,9.46
2024-05-09T01:06:39.945Z,9.54
2024-05-09T01:09:44.371Z,9.49
2024-05-09T01:12:51.385Z,9.56
2024-05-09T01:15:58.051Z,9.52
2024-05-09T01:19:03.425Z,9.33
2024-05-09T01:22:08.083Z,9.30
2024-05-09T01:25:15.719Z,9.37
2024-05-09T01:28:20.128Z,9.30
2024-05-09T01:31:24.532Z,9.24
2024-05-09T01:34:29.051Z,9.23
2024-05-09T01:37:33.427Z,9.21
2024-05-09T01:40:40.705Z,9.23
2024-05-09T01:43:45.258Z,9.30
2024-05-09T01:46:49.873Z,9.21
2024-05-09T01:49:54.369Z,9.17
2024-05-09T01:52:58.891Z,9.13
2024-05-09T01:56:06.671Z,9.22
2024-05-09T01:59:11.529Z,9.15
2024-05-09T02:02:16.324Z,9.02
2024-05-09T02:05:20.941Z,9.11
2024-05-09T02:08:25.482Z,9.05
2024-05-09T02:11:32.574Z,9.06
2024-05-09T02:14:37.170Z,8.91
2024-05-09T02:17:41.874Z,8.91
2024-05-09T02:20:46.481Z,8.92
2024-05-09T02:23:50.897Z,9.06
2024-05-09T02:26:57.900Z,9.07
2024-05-09T02:30:02.315Z,8.93
2024-05-09T02:33:07.648Z,8.73
2024-05-09T02:36:12.985Z,8.65
2024-05-09T02:39:14.804Z,8.64
2024-05-09T02:42:21.813Z,8.60
2024-05-09T02:45:24.791Z,8.59
2024-05-09T02:48:29.279Z,8.51
2024-05-09T02:51:31.143Z,8.54
2024-05-09T02:54:35.553Z,8.56
2024-05-09T02:57:40.304Z,8.51
2024-05-09T03:00:45.016Z,8.47
2024-05-09T03:03:48.394Z,8.45
2024-05-09T03:06:53.012Z,8.45
2024-05-09T03:09:54.804Z,8.40
2024-05-09T03:13:01.964Z,8.44
2024-05-09T03:16:04.181Z,8.45
2024-05-09T03:19:08.705Z,8.41
2024-05-09T03:22:10.592Z,8.44
2024-05-09T03:25:14.994Z,8.46
2024-05-09T03:28:22.025Z,8.38
2024-05-09T03:31:23.830Z,8.42
2024-05-09T03:34:28.310Z,8.40
2024-05-09T03:37:32.884Z,8.33
2024-05-09T03:40:37.257Z,8.37
2024-05-09T03:43:44.277Z,8.38
2024-05-09T03:46:48.777Z,8.46
2024-05-09T03:49:50.672Z,8.41
2024-05-09T03:52:55.165Z,8.30
2024-05-09T03:55:57.264Z,8.18
2024-05-09T03:59:04.718Z,8.18
2024-05-09T04:02:06.868Z,8.17
2024-05-09T04:05:11.574Z,8.26
2024-05-09T04:08:14.612Z,8.36
2024-05-09T04:11:19.337Z,8.28
2024-05-09T04:14:23.923Z,8.28
2024-05-09T04:17:28.576Z,8.29
2024-05-09T04:20:37.718Z,8.39
2024-05-09T04:23:44.690Z,8.41
2024-05-09T04:26:46.480Z,8.49
2024-05-09T04:29:53.537Z,8.48
2024-05-09T04:32:55.496Z,8.52
2024-05-09T04:36:00.008Z,8.59
2024-05-09T04:39:04.459Z,8.58
2024-05-09T04:42:08.835Z,8.60
2024-05-09T04:45:15.978Z,8.56
2024-05-09T04:48:20.482Z,8.63
2024-05-09T04:51:25.176Z,8.74
2024-05-09T04:54:34.142Z,8.75
2024-05-09T04:57:40.926Z,8.86
2024-05-09T05:00:46.055Z,8.90
2024-05-09T05:03:50.998Z,9.00
2024-05-09T05:06:57.730Z,9.11
2024-05-09T05:10:00.745Z,9.18
2024-05-09T05:13:23.904Z,9.31
2024-05-09T05:16:31.598Z,9.40
2024-05-09T05:19:33.628Z,9.50
2024-05-09T05:22:38.066Z,9.66
2024-05-09T05:25:40.224Z,9.66
2024-05-09T05:28:44.709Z,9.75
2024-05-09T05:31:49.267Z,9.86
2024-05-09T05:34:53.798Z,10.10
2024-05-09T05:37:55.697Z,10.22
2024-05-09T05:41:00.181Z,10.42
2024-05-09T05:44:01.978Z,10.53
2024-05-09T05:47:09.146Z,10.58
2024-05-09T05:50:20.719Z,10.79
2024-05-09T05:53:31.853Z,11.01
2024-05-09T05:56:33.792Z,11.15
2024-05-09T05:59:38.323Z,11.37
2024-05-09T06:02:45.846Z,11.64
2024-05-09T06:05:48.043Z,11.84
2024-05-09T06:08:52.687Z,12.03
2024-05-09T06:11:54.700Z,12.19
2024-05-09T06:15:00.485Z,12.39
2024-05-09T06:18:08.401Z,12.53
2024-05-09T06:21:12.982Z,12.56
2024-05-09T06:24:14.762Z,12.76
2024-05-09T06:27:19.471Z,12.98
2024-05-09T06:30:29.535Z,13.10
2024-05-09T06:33:43.864Z,13.19
2024-05-09T06:36:45.760Z,13.33
2024-05-09T06:39:50.142Z,13.39
2024-05-09T06:42:53.971Z,13.53
2024-05-09T06:45:58.382Z,13.57
2024-05-09T06:49:08.100Z,13.38
2024-05-09T06:52:12.789Z,13.68
2024-05-09T06:55:14.590Z,13.75
2024-05-09T06:58:19.056Z,13.90
2024-05-09T07:01:20.923Z,13.73
2024-05-09T07:04:28.437Z,13.86
2024-05-09T07:07:30.425Z,13.91
2024-05-09T07:10:36.281Z,14.21
2024-05-09T07:13:38.774Z,14.43
2024-05-09T07:16:43.178Z,14.54
2024-05-09T07:19:47.702Z,14.61
2024-05-09T07:22:52.230Z,14.75
2024-05-09T07:25:54.226Z,14.80
2024-05-09T07:28:58.711Z,14.91
2024-05-09T07:32:03.179Z,15.05
2024-05-09T07:35:07.799Z,14.97
2024-05-09T07:38:12.264Z,14.91
2024-05-09T07:41:17.356Z,15.18
2024-05-09T07:44:19.223Z,14.89
2024-05-09T07:48:49.040Z,15.26
2024-05-09T07:54:00.640Z,15.73
2024-05-09T07:57:03.504Z,15.91
2024-05-09T08:00:11.872Z,16.00
2024-05-09T08:03:16.366Z,16.11
2024-05-09T08:06:23.599Z,16.06
2024-05-09T08:09:25.542Z,16.35
2024-05-09T08:12:30.024Z,16.48
2024-05-09T08:15:31.882Z,16.59
2024-05-09T08:18:36.544Z,16.72
2024-05-09T08:21:43.691Z,16.69
2024-05-09T08:24:46.726Z,16.71
2024-05-09T08:27:51.256Z,17.04
2024-05-09T08:30:53.255Z,17.50
2024-05-09T08:33:57.872Z,17.61
2024-05-09T08:37:12.941Z,17.68
2024-05-09T08:40:24.178Z,17.75
2024-05-09T08:43:36.759Z,18.20
2024-05-09T08:46:42.324Z,18.21
2024-05-09T08:49:46.867Z,18.24
2024-05-09T08:52:53.985Z,18.11
2024-05-09T08:55:58.595Z,18.02
2024-05-09T08:59:04.390Z,17.99
2024-05-09T09:02:06.668Z,17.95
2024-05-09T09:05:16.898Z,18.09
2024-05-09T09:08:22.874Z,18.18
2024-05-09T09:11:27.506Z,17.81
2024-05-09T09:14:29.378Z,18.06
2024-05-09T09:17:33.917Z,18.15
2024-05-09T09:20:37.085Z,18.27
2024-05-09T09:23:44.336Z,18.26
2024-05-09T09:26:46.132Z,18.86
2024-05-09T09:29:51.319Z,18.74
2024-05-09T09:32:55.772Z,18.99
2024-05-09T09:35:57.663Z,19.19
2024-05-09T09:39:06.224Z,19.16
2024-05-09T09:42:08.015Z,20.16
2024-05-09T09:45:13.507Z,20.53
2024-05-09T09:48:16.425Z,20.55
2024-05-09T09:51:22.226Z,20.69
2024-05-09T09:54:28.656Z,20.34
2024-05-09T09:57:36.019Z,20.57
2024-05-09T10:00:38.209Z,20.76
2024-05-09T10:03:42.849Z,20.91
2024-05-09T10:06:48.913Z,21.25
2024-05-09T10:10:00.549Z,21.14
2024-05-09T10:13:06.414Z,21.28
2024-05-09T10:16:10.307Z,21.24
2024-05-09T10:19:28.569Z,21.54
2024-05-09T10:22:30.894Z,21.76
2024-05-09T10:25:38.791Z,21.90
2024-05-09T10:28:43.407Z,22.00
2024-05-09T10:31:49.909Z,22.21
2024-05-09T10:35:04.972Z,21.81
2024-05-09T10:38:09.332Z,22.24
2024-05-09T10:41:16.527Z,22.62
2024-05-09T10:44:24.248Z,23.23
2024-05-09T10:47:29.428Z,23.80
2024-05-09T10:50:34.224Z,22.89
2024-05-09T10:53:46.024Z,23.09
2024-05-09T10:57:00.928Z,23.75
2024-05-09T11:00:06.354Z,24.50
2024-05-09T11:03:14.157Z,25.04
2024-05-09T11:06:19.550Z,24.39
2024-05-09T11:09:24.156Z,24.17
2024-05-09T11:12:28.915Z,24.37
2024-05-09T11:15:40.770Z,24.27
2024-05-09T11:18:43.322Z,24.70
2024-05-09T11:21:53.808Z,24.87
2024-05-09T11:24:56.755Z,24.53
2024-05-09T11:28:04.756Z,24.73
2024-05-09T11:31:08.453Z,25.00
2024-05-09T11:34:13.291Z,25.50
2024-05-09T11:37:15.263Z,25.61
2024-05-09T11:40:25.420Z,26.04
2024-05-09T11:43:39.020Z,26.04
2024-05-09T11:46:40.988Z,26.01
2024-05-09T11:49:46.231Z,26.17
2024-05-09T11:52:48.057Z,25.74
2024-05-09T11:55:52.619Z,25.61
2024-05-09T11:58:57.055Z,25.42
2024-05-09T12:02:01.561Z,25.88
2024-05-09T12:05:03.746Z,25.58
2024-05-09T12:08:09.524Z,25.63
2024-05-09T12:11:13.699Z,25.46
2024-05-09T12:14:21.127Z,24.58
2024-05-09T12:17:23.028Z,24.27
2024-05-09T12:20:35.295Z,24.01
2024-05-09T12:23:40.532Z,23.68
2024-05-09T12:26:44.970Z,23.79
2024-05-09T12:29:49.414Z,23.88
2024-05-09T12:32:53.932Z,23.91
2024-05-09T12:35:55.898Z,24.82
2024-05-09T12:39:00.826Z,24.74
2024-05-09T12:42:05.226Z,25.01
2024-05-09T12:45:09.904Z,24.69
2024-05-09T12:48:14.766Z,24.78
2024-05-09T12:51:19.234Z,24.36
2024-05-09T12:54:21.047Z,24.81
2024-05-09T12:57:25.671Z,24.00
2024-05-09T13:00:33.768Z,24.69
2024-05-09T13:03:39.078Z,25.29
2024-05-09T13:06:41.017Z,25.46
2024-05-09T13:09:45.515Z,25.66
2024-05-09T13:12:47.419Z,25.25
2024-05-09T13:15:55.125Z,24.43
2024-05-09T13:18:57.359Z,24.87
2024-05-09T13:22:01.800Z,24.95
2024-05-09T13:25:03.997Z,25.20
2024-05-09T13:28:08.998Z,25.44
2024-05-09T13:31:16.136Z,25.22
2024-05-09T13:34:18.015Z,25.23
2024-05-09T13:37:22.503Z,24.58
2024-05-09T13:40:31.807Z,24.51
2024-05-09T13:43:38.840Z,23.81
2024-05-09T13:46:43.575Z,23.93
2024-05-09T13:49:48.717Z,23.82
2024-05-09T13:52:50.555Z,23.97
2024-05-09T13:55:55.067Z,23.76
2024-05-09T13:58:56.914Z,24.17
2024-05-09T14:02:04.009Z,24.40
2024-05-09T14:05:06.694Z,24.31
2024-05-09T14:08:11.352Z,24.20
2024-05-09T14:11:13.251Z,23.57
2024-05-09T14:14:17.763Z,23.50
2024-05-09T14:17:22.814Z,23.44
2024-05-09T14:20:31.646Z,23.13
2024-05-09T14:23:34.360Z,22.95
2024-05-09T14:26:38.854Z,22.62
2024-05-09T14:29:41.471Z,22.61
2024-05-09T14:32:49.066Z,22.33
2024-05-09T14:35:51.187Z,22.35
2024-05-09T14:38:55.626Z,22.11
2024-05-09T14:41:57.423Z,21.86
2024-05-09T14:45:02.125Z,21.75
2024-05-09T14:48:07.929Z,21.79
2024-05-09T14:51:12.463Z,21.67
2024-05-09T14:54:16.947Z,21.56
2024-05-09T14:57:18.966Z,21.45
2024-05-09T15:00:28.892Z,21.43
2024-05-09T15:03:37.841Z,21.45
2024-05-09T15:06:43.131Z,21.41
2024-05-09T15:09:47.646Z,21.44
2024-05-09T15:12:49.490Z,21.26
2024-05-09T15:15:54.648Z,21.14
2024-05-09T15:18:59.852Z,21.14
2024-05-09T15:22:04.540Z,20.92
2024-05-09T15:25:07.059Z,20.72
2024-05-09T15:28:11.725Z,20.76
2024-05-09T15:31:13.615Z,20.68
2024-05-09T15:34:20.681Z,20.70
2024-05-09T15:37:25.401Z,20.90
2024-05-09T15:40:37.492Z,20.72
2024-05-09T15:43:42.017Z,20.65
2024-05-09T15:46:46.465Z,20.62
2024-05-09T15:49:51.136Z,20.58
2024-05-09T15:52:55.662Z,20.61
2024-05-09T15:56:00.174Z,20.67
2024-05-09T15:59:02.139Z,20.56
2024-05-09T16:02:07.690Z,20.36
2024-05-09T16:05:15.041Z,20.44
2024-05-09T16:08:19.798Z,20.30
2024-05-09T16:11:21.604Z,20.28
2024-05-09T16:14:26.084Z,20.16
2024-05-09T16:17:30.652Z,20.19
2024-05-09T16:20:40.128Z,20.15
2024-05-09T16:23:47.187Z,20.21
2024-05-09T16:26:49.051Z,20.19
2024-05-09T16:29:53.629Z,20.16
2024-05-09T16:32:55.889Z,20.15
2024-05-09T16:36:03.135Z,20.13
2024-05-09T16:39:04.947Z,19.93
2024-05-09T16:42:09.673Z,19.70
2024-05-09T16:45:14.068Z,19.69
2024-05-09T16:48:16.844Z,19.49
2024-05-09T16:51:24.260Z,19.44
2024-05-09T16:54:26.026Z,19.35
2024-05-09T16:57:30.533Z,19.39
2024-05-09T17:00:40.808Z,19.26
2024-05-09T17:03:45.123Z,19.20
2024-05-09T17:06:52.319Z,19.12
2024-05-09T17:09:54.494Z,19.06
2024-05-09T17:12:59.008Z,18.97
2024-05-09T17:16:03.584Z,18.98
2024-05-09T17:19:08.050Z,18.79
2024-05-09T17:22:13.470Z,18.85
2024-05-09T17:25:18.516Z,18.88
2024-05-09T17:28:23.199Z,18.76
2024-05-09T17:31:25.063Z,18.72
2024-05-09T17:34:29.678Z,18.75
2024-05-09T17:37:36.940Z,18.67
2024-05-09T17:40:41.387Z,18.72
2024-05-09T17:43:46.909Z,18.74
2024-05-09T17:46:48.749Z,18.49
2024-05-09T17:49:53.211Z,18.49
2024-05-09T17:53:00.335Z,18.56
2024-05-09T17:56:02.685Z,18.55
2024-05-09T17:59:10.046Z,18.50
2024-05-09T18:02:15.830Z,18.43
2024-05-09T18:05:17.805Z,18.45
2024-05-09T18:08:24.886Z,18.41
2024-05-09T18:11:26.719Z,18.32
2024-05-09T18:14:31.234Z,18.27
2024-05-09T18:17:33.272Z,18.16
2024-05-09T18:20:43.955Z,18.18
2024-05-09T18:23:55.492Z,18.01
2024-05-09T18:26:59.471Z,17.99
2024-05-09T18:30:07.091Z,18.07
2024-05-09T18:33:12.991Z,18.01
2024-05-09T18:36:17.795Z,17.93
2024-05-09T18:39:24.834Z,17.78
2024-05-09T18:42:26.636Z,17.74
2024-05-09T18:45:31.720Z,17.71
2024-05-09T18:48:36.683Z,17.58
2024-05-09T18:51:38.606Z,17.51
2024-05-09T18:54:45.679Z,17.53
2024-05-09T18:57:50.145Z,17.46
2024-05-09T19:00:54.299Z,17.44
2024-05-09T19:04:00.121Z,17.38
2024-05-09T19:07:05.222Z,17.31
2024-05-09T19:10:21.863Z,17.14
2024-05-09T19:13:30.131Z,17.07
2024-05-09T19:16:34.617Z,17.01
2024-05-09T19:19:37.001Z,17.02
2024-05-09T19:22:41.461Z,16.91
2024-05-09T19:25:48.689Z,16.88
2024-05-09T19:28:50.727Z,16.70
2024-05-09T19:31:55.188Z,16.69
2024-05-09T19:34:57.085Z,16.54
2024-05-09T19:38:01.623Z,16.53
2024-05-09T19:41:06.038Z,16.51
2024-05-09T19:44:10.478Z,16.42
2024-05-09T19:47:12.387Z,16.34
2024-05-09T19:50:23.194Z,16.30
2024-05-09T19:53:36.045Z,16.23
2024-05-09T19:56:44.809Z,16.19
2024-05-09T19:59:49.277Z,16.15
2024-05-09T20:02:51.286Z,16.08
2024-05-09T20:05:55.899Z,16.02
2024-05-09T20:08:58.871Z,16.05
2024-05-09T20:12:06.202Z,16.05
2024-05-09T20:15:08.768Z,15.98
2024-05-09T20:18:13.447Z,15.98
2024-05-09T20:21:15.561Z,15.91
2024-05-09T20:24:20.006Z,15.84
2024-05-09T20:27:27.814Z,15.75
2024-05-09T20:30:32.868Z,15.70
2024-05-09T20:33:38.631Z,15.69
2024-05-09T20:36:40.557Z,15.64
2024-05-09T20:39:45.067Z,15.63
2024-05-09T20:42:49.573Z,15.60
2024-05-09T20:45:54.065Z,15.55
2024-05-09T20:48:56.367Z,15.56
2024-05-09T20:52:01.055Z,15.57
2024-05-09T20:55:03.002Z,15.49
2024-05-09T20:58:10.836Z,15.54
2024-05-09T21:01:12.833Z,15.43
2024-05-09T21:04:17.478Z,15.48
2024-05-09T21:07:19.621Z,15.50
2024-05-09T21:10:26.960Z,15.48
2024-05-09T21:13:31.896Z,15.39
2024-05-09T21:16:36.562Z,15.39
2024-05-09T21:19:38.420Z,15.33
2024-05-09T21:22:42.822Z,15.43
2024-05-09T21:25:44.634Z,15.36
2024-05-09T21:28:52.098Z,15.39
2024-05-09T21:31:56.636Z,15.38
2024-05-09T21:34:58.503Z,15.29
2024-05-09T21:38:04.526Z,15.27
2024-05-09T21:41:07.324Z,15.27
2024-05-09T21:44:14.448Z,15.38
2024-05-09T21:47:16.301Z,15.33
2024-05-09T21:50:27.617Z,15.33
2024-05-09T21:53:37.816Z,15.38
2024-05-09T21:56:39.754Z,15.38
2024-05-09T21:59:47.465Z,15.38
2024-05-09T22:02:49.416Z,15.32
2024-05-09T22:05:53.880Z,15.28
2024-05-09T22:08:55.697Z,15.31
2024-05-09T22:12:00.160Z,15.27
2024-05-09T22:15:05.335Z,15.23
2024-05-09T22:18:11.054Z,15.25
2024-05-09T22:21:16.026Z,15.25
2024-05-09T22:24:17.816Z,15.27
2024-05-09T22:27:22.338Z,15.26
2024-05-09T22:30:35.546Z,15.14
2024-05-09T22:33:46.260Z,15.13
2024-05-09T22:36:49.462Z,15.07
2024-05-09T22:39:53.942Z,15.04
2024-05-09T22:42:55.971Z,15.03
2024-05-09T22:46:05.259Z,15.02
2024-05-09T22:49:07.252Z,15.11
2024-05-09T22:52:11.822Z,15.08
2024-05-09T22:55:16.467Z,15.05
2024-05-09T22:58:19.119Z,15.06
2024-05-09T23:01:27.322Z,15.11
2024-05-09T23:04:29.207Z,14.97
2024-05-09T23:07:33.628Z,15.00
2024-05-09T23:10:37.686Z,15.04
2024-05-09T23:13:42.993Z,14.97
2024-05-09T23:16:47.456Z,15.04
2024-05-09T23:19:51.916Z,14.96
2024-05-09T23:22:53.696Z,14.94
2024-05-09T23:25:58.091Z,14.94
2024-05-09T23:29:02.539Z,14.85
2024-05-09T23:32:10.727Z,14.81
2024-05-09T23:35:12.684Z,14.82
2024-05-09T23:38:18.431Z,14.82
2024-05-09T23:41:21.375Z,14.71
2024-05-09T23:44:25.786Z,14.72
2024-05-09T23:47:32.884Z,14.69
2024-05-09T23:50:37.709Z,14.62
2024-05-09T23:53:47.088Z,14.70
2024-05-09T23:56:48.892Z,14.79
2024-05-09T23:59:53.379Z,14.76
